This is the latest recevied weather packets stored in our database for station/object N7MLR. If no packets are shown the sender has not sent any weather packets the latest 10 day(s).
| Time | Temp. | Humidity | Pressure | Rain* | Wind** | Luminosity | Snow |
|---|---|---|---|---|---|---|---|
| 1778114293 | 17.22° C | 84% | 1011.9 hPa | 0 mm | - | 31 W/m² | - |
| 1778113987 | 17.22° C | 84% | 1011.8 hPa | 0 mm | - | 25 W/m² | - |
| 1778113678 | 17.22° C | 84% | 1011.8 hPa | 0 mm | - | 27 W/m² | - |
| 1778113374 | 17.22° C | 84% | 1012.1 hPa | 0 mm | - | 24 W/m² | - |
| 1778113071 | 17.22° C | 84% | 1012 hPa | 0 mm | - | 24 W/m² | - |
| 1778112769 | 17.78° C | 83% | 1012 hPa | 0 mm | - | 32 W/m² | - |
| 1778112465 | 17.78° C | 84% | 1012.1 hPa | 0 mm | - | 37 W/m² | - |
| 1778112161 | 17.78° C | 84% | 1011.8 hPa | 0 mm | - | 62 W/m² | - |
| 1778111858 | 17.78° C | 84% | 1011.8 hPa | 0 mm | - | 71 W/m² | - |
| 1778111553 | 17.78° C | 83% | 1011.6 hPa | 0 mm | - | 86 W/m² | - |
| 1778111250 | 17.78° C | 84% | 1011.6 hPa | 0 mm | - | 96 W/m² | - |
| 1778110947 | 17.78° C | 84% | 1011.5 hPa | 0 mm | - | 117 W/m² | - |
| 1778110645 | 17.78° C | 84% | 1011.4 hPa | 0 mm | - | 101 W/m² | - |
| 1778110341 | 18.33° C | 83% | 1011.4 hPa | 0 mm | - | 111 W/m² | - |
| 1778110038 | 18.33° C | 82% | 1010.9 hPa | 0 mm | - | 133 W/m² | - |
| 1778109733 | 18.33° C | 82% | 1011.2 hPa | 0 mm | - | 144 W/m² | - |
| 1778109430 | 18.33° C | 82% | 1011.2 hPa | 0 mm | - | 157 W/m² | - |
| 1778109129 | 18.33° C | 82% | 1011.3 hPa | 0 mm | - | 149 W/m² | - |
| 1778108825 | 18.33° C | 82% | 1010.9 hPa | 0 mm | - | 157 W/m² | - |
| 1778108522 | 18.89° C | 81% | 1010.9 hPa | 0 mm | - | 170 W/m² | - |
| 1778108218 | 18.89° C | 80% | 1011.1 hPa | 0 mm | - | 147 W/m² | - |
| 1778107915 | 18.89° C | 81% | 1010.8 hPa | 0 mm | - | 180 W/m² | - |
| 1778107612 | 18.89° C | 81% | 1011.1 hPa | 0 mm | - | 166 W/m² | - |
| 1778107309 | 19.44° C | 80% | 1011.2 hPa | 0 mm | - | 129 W/m² | - |
| 1778107005 | 19.44° C | 80% | 1011.1 hPa | 0 mm | - | 167 W/m² | - |
* Rain latest hour (hover to see other rain measurements)
** Current wind speed in m/s (hover to see current wind gust speed)